Time;durP1;ratioP1;P1;durP2;ratioP2;P2;SDS_P1;SDS_P2;PMS_P1;PMS_P2;Temp;Humidity;BMP_temperature;BMP_pressure;BME280_temperature;BME280_humidity;BME280_pressure;Samples;Min_cycle;Max_cycle;Signal;HPM_P1;HPM_P2
2021/03/01 00:00:22;;;;;;;10.05;5.58;;;;;;;3.40;68.83;101145.64;1727368;82;21653;-64
2021/03/01 00:02:50;;;;;;;9.25;6.55;;;;;;;3.37;68.94;101150.12;1727041;81;21160;-64
2021/03/01 00:05:20;;;;;;;13.30;6.17;;;;;;;3.32;69.10;101154.19;1730609;82;21368;-64
2021/03/01 00:07:49;;;;;;;10.35;6.25;;;;;;;3.26;69.26;101150.08;1744447;80;21128;-63
2021/03/01 00:10:19;;;;;;;14.07;6.28;;;;;;;3.26;69.37;101156.58;1737732;82;21175;-64
2021/03/01 00:12:48;;;;;;;10.25;5.80;;;;;;;3.29;69.37;101160.34;1745737;82;21435;-64
2021/03/01 00:15:16;;;;;;;14.20;5.60;;;;;;;3.38;69.20;101173.48;1739851;82;21200;-64
2021/03/01 00:17:44;;;;;;;9.85;5.05;;;;;;;3.40;69.16;101179.93;1741849;82;21194;-64
2021/03/01 00:20:14;;;;;;;7.95;4.10;;;;;;;3.31;69.33;101178.49;1746078;82;21156;-63
2021/03/01 00:22:41;;;;;;;7.37;3.40;;;;;;;3.20;69.52;101184.10;1731019;81;21235;-64
2021/03/01 00:25:10;;;;;;;7.80;3.35;;;;;;;3.09;69.77;101181.91;1706324;82;21200;-63
2021/03/01 00:27:38;;;;;;;5.55;2.45;;;;;;;3.00;69.94;101185.28;1715866;83;21518;-64
2021/03/01 00:30:08;;;;;;;5.87;2.70;;;;;;;2.92;70.19;101183.78;1737782;82;21804;-63
2021/03/01 00:32:36;;;;;;;7.20;3.33;;;;;;;2.96;70.26;101178.88;1745973;82;21136;-64
2021/03/01 00:35:07;;;;;;;11.48;3.15;;;;;;;2.98;70.24;101175.77;1746028;82;21172;-64
2021/03/01 00:37:35;;;;;;;4.90;2.42;;;;;;;2.94;70.39;101183.73;1753568;80;21152;-63
2021/03/01 00:40:06;;;;;;;6.35;2.62;;;;;;;2.89;70.46;101178.71;1736602;80;21152;-64
2021/03/01 00:42:34;;;;;;;5.00;2.50;;;;;;;2.79;70.54;101175.58;1711412;82;21211;-64
2021/03/01 00:45:04;;;;;;;5.72;2.72;;;;;;;2.74;70.78;101183.99;1727138;80;21191;-64
2021/03/01 00:47:32;;;;;;;7.12;3.17;;;;;;;2.74;70.80;101187.89;1726573;82;21615;-64
2021/03/01 00:50:00;;;;;;;6.10;2.70;;;;;;;2.87;70.66;101183.55;1738514;82;21117;-64
2021/03/01 00:52:27;;;;;;;5.83;2.60;;;;;;;2.95;70.49;101194.53;1737778;82;21203;-64
2021/03/01 00:54:55;;;;;;;5.83;2.40;;;;;;;2.95;70.53;101200.58;1731042;82;21575;-64
2021/03/01 00:57:23;;;;;;;6.17;2.50;;;;;;;2.95;70.56;101198.44;1723887;82;21195;-63
2021/03/01 00:59:50;;;;;;;5.33;2.12;;;;;;;2.96;70.62;101198.84;1719902;82;21560;-63
2021/03/01 01:02:18;;;;;;;5.22;2.27;;;;;;;3.00;70.52;101196.98;1689907;84;21172;-64
2021/03/01 01:04:50;;;;;;;6.15;2.70;;;;;;;3.00;70.45;101201.72;1707742;82;21180;-64
2021/03/01 01:07:18;;;;;;;6.33;2.67;;;;;;;3.02;70.26;101207.70;1702832;81;21943;-64
2021/03/01 01:09:45;;;;;;;6.55;2.52;;;;;;;3.08;70.03;101222.27;1739585;81;21208;-64
2021/03/01 01:12:12;;;;;;;6.03;2.85;;;;;;;3.08;69.99;101230.06;1728729;82;21568;-63
2021/03/01 01:14:40;;;;;;;5.20;2.27;;;;;;;3.06;70.04;101236.62;1715293;82;21164;-63
2021/03/01 01:17:07;;;;;;;5.15;2.80;;;;;;;3.02;70.17;101244.57;1737659;82;21164;-65
2021/03/01 01:19:35;;;;;;;6.30;2.62;;;;;;;2.94;70.35;101250.89;1718288;82;21160;-64
2021/03/01 01:22:02;;;;;;;6.03;2.55;;;;;;;2.87;70.48;101261.08;1717477;82;21189;-64
2021/03/01 01:24:29;;;;;;;6.75;3.55;;;;;;;2.79;70.67;101265.25;1705428;82;21180;-64
2021/03/01 01:26:58;;;;;;;6.45;3.27;;;;;;;2.74;70.87;101269.75;1716106;82;21136;-63
2021/03/01 01:29:25;;;;;;;6.85;3.20;;;;;;;2.77;70.83;101270.96;1718349;82;21220;-64
2021/03/01 01:31:53;;;;;;;6.67;2.95;;;;;;;2.84;70.78;101276.80;1708106;84;21607;-65
2021/03/01 01:34:20;;;;;;;6.40;2.83;;;;;;;2.84;70.79;101286.33;1695553;83;21600;-63
2021/03/01 01:36:48;;;;;;;10.40;3.35;;;;;;;2.79;70.88;101295.14;1711329;81;21591;-63
2021/03/01 01:39:15;;;;;;;6.33;2.50;;;;;;;2.72;71.03;101301.87;1708792;82;21568;-63
2021/03/01 01:41:42;;;;;;;6.37;3.83;;;;;;;2.63;71.24;101299.14;1699902;84;21170;-64
2021/03/01 01:44:10;;;;;;;5.92;3.15;;;;;;;2.59;71.39;101307.48;1699971;84;21685;-63
2021/03/01 01:46:37;;;;;;;7.75;2.90;;;;;;;2.64;71.44;101315.14;1705391;82;21173;-63
2021/03/01 01:49:05;;;;;;;6.67;3.08;;;;;;;2.63;71.50;101317.78;1707758;82;21188;-64
2021/03/01 01:51:33;;;;;;;7.05;3.40;;;;;;;2.57;71.67;101315.78;1713097;82;21184;-63
2021/03/01 01:54:00;;;;;;;6.85;2.92;;;;;;;2.51;71.91;101320.32;1718154;82;21122;-63
2021/03/01 01:56:28;;;;;;;6.25;3.08;;;;;;;2.46;72.08;101320.92;1725006;82;21628;-63
2021/03/01 01:58:55;;;;;;;5.25;2.33;;;;;;;2.46;72.26;101323.05;1709133;82;21160;-64
2021/03/01 02:01:22;;;;;;;8.38;3.37;;;;;;;2.52;72.19;101329.80;1727719;82;22010;-64
2021/03/01 02:04:07;;;;;;;5.95;2.72;;;;;;;2.51;72.31;101328.95;1694544;82;21128;-64
2021/03/01 02:06:46;;;;;;;7.25;3.42;;;;;;;2.51;72.38;101316.42;1726271;82;21121;-64
2021/03/01 02:09:50;;;;;;;5.83;2.62;;;;;;;2.49;72.48;101322.97;1735825;82;21428;-63
2021/03/01 02:12:44;;;;;;;7.53;3.75;;;;;;;2.48;72.48;101323.02;1735917;82;21117;-63
2021/03/01 02:15:35;;;;;;;6.60;3.10;;;;;;;2.45;72.49;101330.44;1706700;83;22303;-63
2021/03/01 02:18:04;;;;;;;6.28;3.00;;;;;;;2.53;72.35;101337.55;1731130;82;21236;-63
2021/03/01 02:20:32;;;;;;;5.50;2.35;;;;;;;2.64;72.08;101332.03;1727330;82;21169;-63
2021/03/01 02:23:00;;;;;;;5.75;2.33;;;;;;;2.72;71.90;101338.27;1718942;83;23452;-64
2021/03/01 02:25:28;;;;;;;4.78;1.87;;;;;;;2.75;71.82;101332.97;1702536;82;21219;-63
2021/03/01 02:28:04;;;;;;;5.40;2.10;;;;;;;2.77;71.95;101326.84;1709969;82;21196;-63
2021/03/01 02:30:37;;;;;;;7.10;2.35;;;;;;;2.82;71.88;101331.87;1736081;82;21109;-64
2021/03/01 02:33:10;;;;;;;6.00;2.98;;;;;;;2.88;71.58;101330.84;1736096;82;21595;-63
2021/03/01 02:35:41;;;;;;;5.72;2.33;;;;;;;2.90;71.37;101327.73;1735951;82;21196;-64
2021/03/01 02:38:09;;;;;;;5.28;1.90;;;;;;;2.89;71.35;101341.62;1734805;81;21575;-64
2021/03/01 02:40:36;;;;;;;5.45;3.15;;;;;;;2.94;71.17;101348.39;1735998;82;21149;-63
2021/03/01 02:43:05;;;;;;;6.05;2.70;;;;;;;3.04;70.93;101358.01;1706820;82;21169;-64
2021/03/01 02:45:32;;;;;;;7.65;3.58;;;;;;;3.10;70.84;101365.62;1680989;84;21165;-66
2021/03/01 02:48:00;;;;;;;5.80;3.00;;;;;;;3.09;70.67;101374.34;1733513;82;21176;-64
2021/03/01 02:50:29;;;;;;;6.35;3.12;;;;;;;3.04;70.63;101368.41;1744460;82;21212;-63
2021/03/01 02:52:57;;;;;;;7.60;3.22;;;;;;;2.97;70.70;101379.45;1745850;82;21167;-64
2021/03/01 02:55:24;;;;;;;7.17;2.90;;;;;;;2.90;70.80;101382.33;1727260;81;21140;-63
2021/03/01 02:57:54;;;;;;;7.15;3.42;;;;;;;2.88;70.84;101391.47;1694590;82;21156;-64
2021/03/01 03:00:22;;;;;;;7.08;3.65;;;;;;;2.93;70.81;101397.83;1706502;83;21186;-65
2021/03/01 03:02:50;;;;;;;6.55;3.17;;;;;;;2.92;70.83;101398.72;1715739;83;21623;-62
2021/03/01 03:05:19;;;;;;;5.47;2.67;;;;;;;2.86;71.01;101401.08;1716582;82;21176;-64
2021/03/01 03:07:47;;;;;;;5.47;2.45;;;;;;;2.75;71.17;101398.80;1749896;80;21149;-64
2021/03/01 03:10:16;;;;;;;6.53;2.98;;;;;;;2.66;71.42;101399.55;1741532;82;21574;-63
2021/03/01 03:12:43;;;;;;;6.67;2.80;;;;;;;2.60;71.66;101408.36;1722840;82;21648;-64
2021/03/01 03:15:18;;;;;;;6.42;2.67;;;;;;;2.60;71.74;101409.20;1661142;84;21868;-64
2021/03/01 03:17:46;;;;;;;6.72;2.98;;;;;;;2.69;71.64;101406.80;1697317;84;21189;-63
2021/03/01 03:20:15;;;;;;;6.58;2.72;;;;;;;2.75;71.62;101417.45;1674887;85;21192;-64
2021/03/01 03:22:42;;;;;;;6.08;3.08;;;;;;;2.73;71.66;101418.79;1646514;85;21559;-64
2021/03/01 03:25:11;;;;;;;6.45;3.22;;;;;;;2.71;71.71;101428.39;1627190;85;21194;-64
2021/03/01 03:27:39;;;;;;;6.85;3.17;;;;;;;2.67;71.80;101431.95;1672219;84;21266;-63
2021/03/01 03:30:10;;;;;;;7.53;3.12;;;;;;;2.65;71.82;101432.46;1691886;84;21397;-64
2021/03/01 03:32:37;;;;;;;7.45;3.85;;;;;;;2.61;71.89;101436.06;1696660;84;21863;-63
2021/03/01 03:35:07;;;;;;;6.30;3.27;;;;;;;2.63;71.91;101447.25;1687626;85;21128;-63
2021/03/01 03:37:39;;;;;;;7.12;3.58;;;;;;;2.74;71.70;101446.92;1695052;83;21470;-63
2021/03/01 03:40:08;;;;;;;6.80;3.35;;;;;;;2.79;71.65;101447.20;1672638;85;21201;-63
2021/03/01 03:42:35;;;;;;;9.98;4.03;;;;;;;2.81;71.71;101446.28;1687809;85;21619;-65
2021/03/01 03:45:05;;;;;;;6.78;3.72;;;;;;;2.81;71.75;101447.59;1616557;85;21243;-64
2021/03/01 03:47:34;;;;;;;6.53;3.02;;;;;;;2.81;71.73;101456.26;1655200;85;21642;-63
2021/03/01 03:50:04;;;;;;;9.73;4.00;;;;;;;2.78;71.71;101462.38;1678698;85;22423;-63
2021/03/01 03:52:34;;;;;;;7.45;3.95;;;;;;;2.74;71.77;101459.48;1665249;85;21583;-64
2021/03/01 03:55:02;;;;;;;7.67;4.35;;;;;;;2.81;71.62;101457.98;1708326;84;21128;-64
2021/03/01 03:57:33;;;;;;;7.05;3.22;;;;;;;2.93;71.36;101458.92;1671502;85;21189;-64
2021/03/01 04:00:00;;;;;;;7.80;3.20;;;;;;;3.02;71.21;101459.92;1654561;85;21180;-64
2021/03/01 04:02:28;;;;;;;5.78;2.90;;;;;;;3.03;71.05;101456.90;1716632;82;22386;-65
2021/03/01 04:04:56;;;;;;;8.80;2.98;;;;;;;2.99;70.97;101460.02;1675484;84;21615;-65
2021/03/01 04:07:23;;;;;;;6.08;2.58;;;;;;;2.98;70.96;101455.73;1729336;81;21181;-63
2021/03/01 04:09:50;;;;;;;4.53;2.37;;;;;;;2.96;70.91;101449.28;1729383;82;21164;-63
2021/03/01 04:12:18;;;;;;;6.53;3.05;;;;;;;2.95;70.85;101450.16;1719895;82;21141;-64
2021/03/01 04:14:47;;;;;;;5.37;2.80;;;;;;;2.92;70.72;101458.05;1737827;82;21191;-61
2021/03/01 04:17:16;;;;;;;7.30;3.15;;;;;;;2.92;70.63;101457.21;1718559;82;21165;-61
2021/03/01 04:19:45;;;;;;;5.58;2.98;;;;;;;2.99;70.51;101461.31;1727700;82;21549;-62
2021/03/01 04:22:12;;;;;;;7.50;2.83;;;;;;;3.05;70.45;101465.49;1711669;82;21136;-64
2021/03/01 04:24:41;;;;;;;5.90;3.27;;;;;;;3.10;70.44;101471.40;1736351;82;21658;-64
2021/03/01 04:27:08;;;;;;;6.60;3.40;;;;;;;3.10;70.36;101476.59;1730214;82;21339;-63
2021/03/01 04:29:37;;;;;;;7.83;3.58;;;;;;;3.06;70.47;101479.75;1684625;84;21789;-62
2021/03/01 04:32:05;;;;;;;6.80;3.22;;;;;;;3.06;70.43;101475.84;1708179;83;21133;-63
2021/03/01 04:34:33;;;;;;;6.45;3.25;;;;;;;3.03;70.44;101478.55;1708284;83;21188;-63
2021/03/01 04:37:01;;;;;;;6.95;3.50;;;;;;;3.01;70.46;101484.67;1718453;81;21133;-62
2021/03/01 04:39:28;;;;;;;7.28;3.08;;;;;;;2.94;70.47;101482.70;1735678;81;21203;-62
2021/03/01 04:41:56;;;;;;;6.08;3.25;;;;;;;2.95;70.48;101481.36;1710051;82;21241;-62
2021/03/01 04:44:24;;;;;;;6.33;2.67;;;;;;;3.05;70.32;101483.23;1706848;84;21187;-62
2021/03/01 04:46:52;;;;;;;5.60;2.58;;;;;;;3.11;70.17;101492.16;1734119;81;22059;-62
2021/03/01 04:49:23;;;;;;;6.80;3.27;;;;;;;3.14;70.20;101492.50;1738189;82;21163;-63
2021/03/01 04:51:51;;;;;;;7.25;3.17;;;;;;;3.12;70.21;101487.80;1720357;82;21184;-63
2021/03/01 04:54:19;;;;;;;6.20;3.40;;;;;;;3.12;70.22;101495.14;1732489;82;21216;-62
2021/03/01 04:56:46;;;;;;;7.55;3.12;;;;;;;3.14;70.25;101499.88;1739089;82;21111;-63
2021/03/01 04:59:15;;;;;;;6.55;3.33;;;;;;;3.11;70.14;101505.16;1738428;82;21157;-63
2021/03/01 05:01:42;;;;;;;7.03;3.22;;;;;;;3.04;70.16;101510.12;1736534;82;21156;-62
2021/03/01 05:05:24;;;;;;;7.90;3.12;;;;;;;2.99;70.34;101510.72;1797992;79;22765;-63
2021/03/01 05:07:51;;;;;;;6.80;2.65;;;;;;;2.97;70.34;101516.42;1765669;80;21180;-63
2021/03/01 05:10:19;;;;;;;6.55;3.15;;;;;;;3.09;70.20;101519.09;1769122;80;21277;-63
2021/03/01 05:12:46;;;;;;;5.65;2.92;;;;;;;3.16;70.04;101519.30;1777233;80;21619;-63
2021/03/01 05:15:15;;;;;;;5.62;2.35;;;;;;;3.20;69.93;101529.19;1769620;80;21876;-62
2021/03/01 05:17:42;;;;;;;7.80;3.37;;;;;;;3.18;69.96;101532.27;1758090;80;21638;-63
2021/03/01 05:20:13;;;;;;;7.62;3.40;;;;;;;3.12;70.06;101538.52;1726397;80;21196;-63
2021/03/01 05:22:40;;;;;;;6.70;2.62;;;;;;;3.08;70.29;101550.77;1765554;80;21206;-63
2021/03/01 05:25:11;;;;;;;6.87;3.10;;;;;;;3.06;70.33;101560.80;1753946;81;21672;-63
2021/03/01 05:27:38;;;;;;;6.33;3.02;;;;;;;3.05;70.36;101563.85;1728030;80;21560;-63
2021/03/01 05:30:08;;;;;;;7.28;3.45;;;;;;;3.07;70.37;101569.85;1700089;83;21172;-63
2021/03/01 05:32:36;;;;;;;11.28;3.95;;;;;;;3.19;70.20;101576.89;1705198;83;21731;-63
2021/03/01 05:35:06;;;;;;;5.60;3.05;;;;;;;3.22;70.06;101576.80;1668065;83;21153;-61
2021/03/01 05:37:34;;;;;;;6.72;3.30;;;;;;;3.21;70.06;101579.87;1672959;83;21192;-61
2021/03/01 05:40:25;;;;;;;6.08;3.08;;;;;;;3.18;70.08;101585.16;1702248;83;21207;-63
2021/03/01 05:42:53;;;;;;;5.97;3.05;;;;;;;3.15;70.12;101584.78;1684717;84;21133;-65
2021/03/01 05:45:20;;;;;;;6.67;2.98;;;;;;;3.13;70.17;101586.58;1678604;83;21627;-63
2021/03/01 05:47:47;;;;;;;6.22;2.70;;;;;;;3.11;70.22;101590.98;1638164;83;22542;-63
2021/03/01 05:50:15;;;;;;;6.83;2.75;;;;;;;3.14;70.13;101600.00;1690145;83;21191;-63
2021/03/01 05:52:46;;;;;;;5.87;3.05;;;;;;;3.22;69.95;101603.66;1689138;83;21569;-62
2021/03/01 05:55:15;;;;;;;6.55;3.30;;;;;;;3.23;69.91;101613.18;1682422;84;21199;-62
2021/03/01 05:57:42;;;;;;;7.25;3.22;;;;;;;3.18;70.00;101624.17;1683607;83;21181;-62
2021/03/01 06:00:11;;;;;;;6.35;3.27;;;;;;;3.11;70.21;101623.92;1683232;84;22467;-63
2021/03/01 06:02:40;;;;;;;8.83;4.28;;;;;;;3.01;70.35;101615.56;1659998;85;21456;-62
2021/03/01 06:05:11;;;;;;;6.53;3.20;;;;;;;3.00;70.51;101626.00;1668363;83;21198;-61
2021/03/01 06:07:39;;;;;;;8.78;3.87;;;;;;;2.95;70.63;101630.03;1688123;83;21204;-63
2021/03/01 06:10:08;;;;;;;6.67;3.37;;;;;;;2.95;70.64;101639.12;1690985;83;21141;-62
2021/03/01 06:12:36;;;;;;;6.15;3.50;;;;;;;3.03;70.46;101638.47;1682828;83;21374;-62
2021/03/01 06:15:04;;;;;;;10.35;5.15;;;;;;;3.09;70.43;101647.41;1699778;82;21180;-63
2021/03/01 06:17:32;;;;;;;7.70;3.65;;;;;;;3.14;70.43;101655.92;1712336;83;21200;-63
2021/03/01 06:19:59;;;;;;;8.80;3.98;;;;;;;3.16;70.36;101663.23;1708149;83;21671;-65
2021/03/01 06:22:43;;;;;;;7.37;3.87;;;;;;;3.13;70.38;101665.91;1671806;83;21651;-64
2021/03/01 06:25:16;;;;;;;8.73;4.37;;;;;;;3.09;70.51;101673.41;1672523;84;21184;-64
2021/03/01 06:27:55;;;;;;;11.05;5.28;;;;;;;3.08;70.60;101678.20;1700304;83;21183;-64
2021/03/01 06:30:30;;;;;;;10.10;5.70;;;;;;;3.06;70.61;101681.72;1708363;83;21750;-63
2021/03/01 06:33:16;;;;;;;10.38;5.25;;;;;;;3.09;70.60;101687.71;1688950;83;21651;-63
2021/03/01 06:35:54;;;;;;;8.60;4.50;;;;;;;3.21;70.32;101694.31;1692568;83;21150;-62
2021/03/01 06:38:34;;;;;;;9.10;5.30;;;;;;;3.25;70.09;101699.83;1690925;83;21985;-62
2021/03/01 06:41:13;;;;;;;7.33;4.72;;;;;;;3.26;70.01;101705.88;1690995;84;21212;-62
2021/03/01 06:43:59;;;;;;;10.60;5.45;;;;;;;3.26;69.93;101713.67;1654590;86;21232;-63
2021/03/01 06:46:29;;;;;;;10.30;5.60;;;;;;;3.23;69.88;101712.45;1637507;86;21243;-62
2021/03/01 06:49:15;;;;;;;11.03;6.70;;;;;;;3.16;69.91;101721.75;1696138;83;21176;-61
2021/03/01 06:51:43;;;;;;;11.78;5.30;;;;;;;3.18;69.99;101723.44;1747194;81;22267;-62
2021/03/01 06:54:21;;;;;;;9.48;5.53;;;;;;;3.27;69.99;101727.09;1682670;83;21203;-61
2021/03/01 06:56:49;;;;;;;12.03;5.37;;;;;;;3.39;70.04;101729.34;1663684;84;21448;-62
2021/03/01 06:59:18;;;;;;;9.60;5.37;;;;;;;3.45;69.66;101733.54;1681792;83;21202;-63
2021/03/01 07:01:58;;;;;;;12.05;5.92;;;;;;;3.47;69.54;101735.19;1664314;84;21217;-63
2021/03/01 07:04:29;;;;;;;8.20;4.58;;;;;;;3.49;69.62;101741.19;1662750;84;21981;-63
2021/03/01 07:07:00;;;;;;;11.48;4.55;;;;;;;3.49;69.51;101737.29;1662171;84;21256;-62
2021/03/01 07:09:32;;;;;;;9.58;3.70;;;;;;;3.47;69.38;101741.69;1710496;82;21195;-63
2021/03/01 07:11:59;;;;;;;7.08;4.17;;;;;;;3.56;69.34;101733.22;1715092;81;21196;-63
2021/03/01 07:14:28;;;;;;;7.67;3.47;;;;;;;3.63;69.08;101725.20;1690056;83;21144;-62
2021/03/01 07:16:58;;;;;;;6.37;2.77;;;;;;;3.65;69.12;101727.76;1680475;85;22126;-63
2021/03/01 07:19:31;;;;;;;7.20;3.90;;;;;;;3.73;69.26;101732.27;1678876;83;21598;-63
2021/03/01 07:22:04;;;;;;;10.80;4.30;;;;;;;3.77;68.87;101729.14;1678268;85;21209;-62
2021/03/01 07:24:32;;;;;;;9.40;3.45;;;;;;;3.72;68.50;101734.02;1699989;82;21177;-63
2021/03/01 07:27:02;;;;;;;7.90;3.65;;;;;;;3.60;68.70;101730.48;1676380;83;21203;-63
2021/03/01 07:29:35;;;;;;;7.03;3.40;;;;;;;3.51;69.01;101738.13;1693246;82;22081;-63
2021/03/01 07:32:05;;;;;;;10.10;4.20;;;;;;;3.52;68.99;101741.56;1683927;83;21143;-63
2021/03/01 07:34:34;;;;;;;6.97;3.98;;;;;;;3.46;69.28;101754.31;1687423;83;21125;-63
2021/03/01 07:37:02;;;;;;;7.62;3.72;;;;;;;3.40;69.54;101762.74;1710793;83;21221;-62
2021/03/01 07:39:31;;;;;;;8.35;3.90;;;;;;;3.32;69.71;101756.44;1691451;83;21192;-62
2021/03/01 07:41:58;;;;;;;7.25;3.45;;;;;;;3.30;69.80;101760.84;1702102;82;21580;-61
2021/03/01 07:44:33;;;;;;;6.83;3.45;;;;;;;3.32;69.93;101756.44;1697497;82;21211;-63
2021/03/01 07:47:03;;;;;;;6.47;3.33;;;;;;;3.30;69.88;101761.69;1641343;85;21213;-62
2021/03/01 07:49:43;;;;;;;7.12;3.40;;;;;;;3.23;70.01;101764.05;1631450;87;21259;-62
2021/03/01 07:52:31;;;;;;;7.45;4.30;;;;;;;3.21;70.18;101758.47;1664462;85;21136;-63
2021/03/01 07:55:05;;;;;;;8.63;3.17;;;;;;;3.25;70.03;101759.66;1636997;86;21204;-63
2021/03/01 07:57:34;;;;;;;7.42;3.05;;;;;;;3.30;69.73;101761.69;1643183;85;21191;-62
2021/03/01 08:00:28;;;;;;;7.80;3.05;;;;;;;3.32;69.72;101770.29;1644805;85;21165;-64
2021/03/01 08:02:55;;;;;;;6.87;2.85;;;;;;;3.34;69.60;101772.86;1660944;85;21675;-64
2021/03/01 08:05:31;;;;;;;7.25;2.70;;;;;;;3.33;69.78;101772.02;1689869;83;21204;-63
2021/03/01 08:07:59;;;;;;;7.80;3.15;;;;;;;3.37;69.68;101772.77;1671127;84;21277;-63
2021/03/01 08:10:32;;;;;;;7.05;2.83;;;;;;;3.49;69.39;101767.67;1669854;82;21244;-63
2021/03/01 08:13:04;;;;;;;5.58;2.95;;;;;;;3.57;69.20;101773.98;1695586;82;21197;-63
2021/03/01 08:15:41;;;;;;;5.75;2.72;;;;;;;3.57;68.97;101774.82;1651624;86;21297;-62
2021/03/01 08:18:11;;;;;;;5.50;2.53;;;;;;;3.55;69.14;101783.13;1648200;85;21200;-61
2021/03/01 08:20:55;;;;;;;5.92;2.85;;;;;;;3.52;69.23;101782.75;1605472;87;22002;-64
2021/03/01 08:23:30;;;;;;;6.62;2.87;;;;;;;3.57;69.13;101784.39;1662769;84;21214;-63
2021/03/01 08:25:58;;;;;;;9.20;2.50;;;;;;;3.58;69.25;101803.87;1650586;84;21209;-64
2021/03/01 08:28:32;;;;;;;7.12;3.37;;;;;;;3.58;69.25;101803.87;1673117;84;21911;-61
2021/03/01 08:31:12;;;;;;;5.75;2.70;;;;;;;3.48;69.03;101805.87;1658810;85;21185;-62
2021/03/01 08:33:40;;;;;;;6.62;3.05;;;;;;;3.44;69.21;101808.59;1693198;84;21221;-62
2021/03/01 08:36:18;;;;;;;6.17;2.65;;;;;;;3.47;69.34;101819.77;1663663;84;21188;-63
2021/03/01 08:38:49;;;;;;;6.17;2.77;;;;;;;3.59;69.33;101821.63;1696864;82;21179;-62
2021/03/01 08:41:18;;;;;;;8.68;3.80;;;;;;;3.64;69.16;101828.86;1654418;85;21157;-63
2021/03/01 08:43:52;;;;;;;8.98;3.22;;;;;;;3.61;69.22;101824.58;1675692;84;21228;-63
2021/03/01 08:46:20;;;;;;;7.37;3.72;;;;;;;3.62;69.23;101831.97;1678957;84;21226;-62
2021/03/01 08:48:50;;;;;;;6.45;3.10;;;;;;;3.57;69.09;101833.84;1712386;83;21164;-63
2021/03/01 08:51:18;;;;;;;9.30;3.60;;;;;;;3.52;69.25;101833.50;1708608;83;21221;-63
2021/03/01 08:53:46;;;;;;;8.58;3.75;;;;;;;3.64;69.22;101837.97;1708295;83;21180;-63
2021/03/01 08:56:20;;;;;;;7.97;4.17;;;;;;;3.74;68.99;101838.58;1709692;83;21615;-63
2021/03/01 08:58:47;;;;;;;9.53;4.72;;;;;;;3.83;68.91;101843.51;1686156;83;21969;-64
2021/03/01 09:01:14;;;;;;;9.48;4.42;;;;;;;3.86;68.53;101836.45;1677315;85;21196;-63
2021/03/01 09:03:43;;;;;;;9.80;4.60;;;;;;;3.84;68.60;101847.37;1665557;84;21214;-63
2021/03/01 09:06:17;;;;;;;10.80;5.12;;;;;;;3.82;68.74;101850.47;1711161;83;21200;-63
2021/03/01 09:08:53;;;;;;;8.03;4.15;;;;;;;3.84;68.34;101852.58;1711259;82;21637;-64
2021/03/01 09:11:29;;;;;;;8.98;4.35;;;;;;;3.77;68.24;101843.70;1678715;85;21211;-64
2021/03/01 09:14:02;;;;;;;7.60;3.85;;;;;;;3.82;68.25;101854.37;1683850;84;21186;-64
2021/03/01 09:16:32;;;;;;;9.63;4.55;;;;;;;3.99;67.79;101851.75;1687058;84;21123;-64
2021/03/01 09:19:05;;;;;;;8.40;3.75;;;;;;;4.07;67.50;101858.89;1670883;84;21205;-63
2021/03/01 09:21:36;;;;;;;7.87;3.98;;;;;;;4.05;67.25;101866.75;1689244;82;21193;-63
2021/03/01 09:24:06;;;;;;;7.58;3.27;;;;;;;4.03;67.32;101870.28;1674738;84;21216;-63
2021/03/01 09:26:40;;;;;;;5.67;2.83;;;;;;;4.04;67.23;101875.45;1688021;84;21185;-63
2021/03/01 09:29:15;;;;;;;7.30;2.62;;;;;;;4.07;67.01;101879.28;1686291;84;21512;-63
2021/03/01 09:31:55;;;;;;;6.47;3.75;;;;;;;4.06;67.07;101875.41;1687856;84;21176;-63
2021/03/01 09:34:26;;;;;;;5.83;2.87;;;;;;;4.10;66.87;101870.50;1688399;82;21202;-63
2021/03/01 09:36:55;;;;;;;5.70;2.83;;;;;;;4.22;66.90;101880.58;1687349;82;22438;-64
2021/03/01 09:39:25;;;;;;;6.70;2.75;;;;;;;4.39;66.19;101876.17;1711298;82;22252;-64
2021/03/01 09:41:56;;;;;;;7.03;3.40;;;;;;;4.48;65.83;101885.92;1706116;82;21189;-63
2021/03/01 09:44:29;;;;;;;6.70;3.22;;;;;;;4.53;65.73;101879.66;1662726;85;21485;-62
2021/03/01 09:46:58;;;;;;;6.35;3.95;;;;;;;4.54;64.90;101883.98;1624558;87;21251;-63
2021/03/01 09:49:26;;;;;;;8.65;4.92;;;;;;;4.47;64.56;101882.44;1641624;85;21401;-63
2021/03/01 09:51:54;;;;;;;8.88;3.45;;;;;;;4.39;65.17;101890.97;1661259;84;21150;-63
2021/03/01 09:54:22;;;;;;;7.10;3.90;;;;;;;4.37;65.20;101892.31;1644558;85;21597;-63
2021/03/01 09:56:53;;;;;;;6.20;3.33;;;;;;;4.38;65.42;101899.67;1694807;84;21144;-64
2021/03/01 09:59:33;;;;;;;7.08;3.80;;;;;;;4.46;65.29;101902.44;1689428;84;21589;-63
2021/03/01 10:02:15;;;;;;;8.58;3.83;;;;;;;4.65;65.21;101899.27;1663453;84;22051;-63
2021/03/01 10:04:43;;;;;;;8.30;4.30;;;;;;;4.82;64.55;101898.31;1693314;83;22292;-64
2021/03/01 10:07:26;;;;;;;8.18;4.50;;;;;;;4.97;63.28;101894.34;1694237;83;21193;-62
2021/03/01 10:09:56;;;;;;;10.58;5.60;;;;;;;4.97;63.28;101894.34;1695514;84;21177;-63
2021/03/01 10:12:26;;;;;;;8.80;4.62;;;;;;;4.98;63.48;101896.52;1694949;84;21179;-63
2021/03/01 10:14:58;;;;;;;10.80;4.72;;;;;;;5.01;63.44;101895.96;1664217;84;21188;-64
2021/03/01 10:17:31;;;;;;;9.28;4.45;;;;;;;5.10;63.06;101887.44;1653654;85;22549;-64
2021/03/01 10:20:07;;;;;;;9.68;5.17;;;;;;;5.10;63.06;101887.44;1653637;85;21194;-63
2021/03/01 10:23:05;;;;;;;10.18;4.65;;;;;;;5.19;62.67;101884.50;1694396;84;21535;-63
2021/03/01 10:25:41;;;;;;;11.10;5.25;;;;;;;5.25;62.40;101882.16;1693955;83;21201;-63
2021/03/01 10:28:29;;;;;;;9.73;5.03;;;;;;;5.32;62.35;101884.95;1653365;86;21530;-65
2021/03/01 10:31:08;;;;;;;11.60;5.90;;;;;;;5.44;62.00;101883.68;1641587;86;21137;-62
2021/03/01 10:34:01;;;;;;;10.32;6.00;;;;;;;5.55;61.79;101883.70;1666418;84;21191;-63
2021/03/01 10:40:07;;;;;;;10.45;4.95;;;;;;;5.73;61.61;101876.12;1693942;84;21196;-65
2021/03/01 10:42:37;;;;;;;10.08;5.60;;;;;;;5.67;61.47;101873.28;1661975;85;21221;-62
2021/03/01 10:45:07;;;;;;;8.45;4.80;;;;;;;5.64;61.08;101869.93;1710680;82;21212;-62
2021/03/01 10:47:35;;;;;;;9.20;5.20;;;;;;;5.61;61.04;101872.64;1687563;83;21233;-63
2021/03/01 10:50:20;;;;;;;7.90;4.58;;;;;;;5.63;61.23;101873.44;1710136;83;21141;-64
2021/03/01 10:52:50;;;;;;;7.40;4.15;;;;;;;5.70;60.90;101873.18;1711516;83;21185;-63
2021/03/01 10:55:18;;;;;;;7.53;3.62;;;;;;;5.75;60.57;101870.41;1711434;83;22014;-63
2021/03/01 10:57:45;;;;;;;7.75;3.35;;;;;;;5.75;60.57;101870.41;1711573;83;21219;-64
2021/03/01 11:00:15;;;;;;;11.65;4.00;;;;;;;5.76;59.80;101865.09;1713419;83;21117;-63
2021/03/01 11:02:43;;;;;;;8.43;4.78;;;;;;;5.69;60.08;101871.46;1677329;84;21223;-63
2021/03/01 11:05:12;;;;;;;6.42;3.15;;;;;;;5.66;60.20;101874.64;1686683;82;21181;-64
2021/03/01 11:07:40;;;;;;;7.95;3.45;;;;;;;5.53;60.15;101878.13;1687738;84;21217;-62
2021/03/01 11:10:09;;;;;;;10.45;4.40;;;;;;;5.53;60.15;101878.13;1666744;84;21770;-64
2021/03/01 11:12:37;;;;;;;8.08;4.33;;;;;;;5.45;60.32;101874.95;1684821;84;22191;-64
2021/03/01 11:15:07;;;;;;;6.72;3.47;;;;;;;5.45;60.32;101874.95;1713471;82;21152;-63
2021/03/01 11:17:34;;;;;;;7.72;3.83;;;;;;;5.36;60.22;101878.71;1680472;85;21665;-63
2021/03/01 11:20:03;;;;;;;7.60;3.52;;;;;;;5.23;60.37;101884.81;1669896;84;22021;-63
2021/03/01 11:22:30;;;;;;;7.25;3.85;;;;;;;5.15;60.81;101885.52;1687709;84;21175;-63
2021/03/01 11:24:58;;;;;;;7.25;2.85;;;;;;;5.09;61.07;101883.11;1708956;83;21228;-63
2021/03/01 11:27:25;;;;;;;6.42;2.80;;;;;;;5.07;61.34;101882.31;1680380;85;21144;-64
2021/03/01 11:29:53;;;;;;;5.92;3.25;;;;;;;5.05;61.46;101886.73;1667129;84;21714;-64
2021/03/01 11:32:20;;;;;;;7.17;3.22;;;;;;;5.07;61.33;101877.09;1710195;83;21272;-64
2021/03/01 11:34:47;;;;;;;6.90;3.20;;;;;;;5.06;61.31;101881.90;1681481;84;21147;-63
2021/03/01 11:37:16;;;;;;;6.65;2.87;;;;;;;5.09;61.37;101884.41;1686581;84;21170;-64
2021/03/01 11:39:43;;;;;;;5.90;2.87;;;;;;;5.24;61.13;101883.05;1658263;85;21203;-64
2021/03/01 11:42:12;;;;;;;6.03;3.22;;;;;;;5.34;60.96;101881.37;1654834;85;21153;-63
2021/03/01 11:44:39;;;;;;;10.40;3.83;;;;;;;5.36;60.94;101880.89;1687680;83;21220;-63
2021/03/01 11:47:07;;;;;;;9.03;3.77;;;;;;;5.42;60.89;101888.95;1686100;83;21162;-63
2021/03/01 11:49:34;;;;;;;12.68;4.55;;;;;;;5.47;60.42;101884.89;1720926;81;21170;-64
2021/03/01 11:52:02;;;;;;;9.08;4.28;;;;;;;5.46;60.16;101887.08;1719177;83;21164;-62